createdAt,value
2019-06-15T00:00:32.849Z,57.42
2019-06-15T00:01:32.865Z,57.23
2019-06-15T00:02:32.881Z,56.37
2019-06-15T00:03:32.902Z,54.74
2019-06-15T00:04:32.917Z,58.56
2019-06-15T00:05:32.938Z,59.81
2019-06-15T00:06:32.954Z,60.38
2019-06-15T00:07:32.975Z,60.67
2019-06-15T00:08:32.996Z,61.41
2019-06-15T00:09:33.031Z,59.78
2019-06-15T00:10:33.032Z,59.11
2019-06-15T00:11:33.049Z,58.63
2019-06-15T00:12:33.062Z,58.15
2019-06-15T00:13:33.085Z,56.72
2019-06-15T00:14:33.105Z,56.56
2019-06-15T00:15:33.120Z,59.59
2019-06-15T00:16:33.140Z,62.27
2019-06-15T00:17:33.161Z,62.55
2019-06-15T00:18:33.170Z,61.60
2019-06-15T00:19:33.192Z,61.88
2019-06-15T00:20:33.213Z,62.37
2019-06-15T00:21:33.229Z,63.23
2019-06-15T00:22:33.245Z,63.67
2019-06-15T00:23:33.260Z,61.66
2019-06-15T00:24:35.565Z,60.83
2019-06-15T00:25:33.301Z,59.11
2019-06-15T00:26:33.323Z,58.06
2019-06-15T00:27:33.333Z,58.44
2019-06-15T00:28:33.349Z,59.69
2019-06-15T00:29:33.379Z,59.72
2019-06-15T00:30:33.384Z,58.37
2019-06-15T00:31:33.405Z,56.56
2019-06-15T00:32:33.420Z,56.37
2019-06-15T00:33:33.439Z,56.56
2019-06-15T00:34:33.459Z,56.37
2019-06-15T00:35:33.476Z,56.17
2019-06-15T00:36:33.496Z,56.84
2019-06-15T00:37:33.512Z,56.27
2019-06-15T00:38:33.524Z,56.37
2019-06-15T00:39:33.543Z,56.75
2019-06-15T00:40:33.561Z,56.75
2019-06-15T00:41:33.584Z,57.23
2019-06-15T00:42:33.606Z,57.04
2019-06-15T00:43:33.622Z,57.23
2019-06-15T00:44:33.637Z,56.75
2019-06-15T00:45:33.659Z,56.75
2019-06-15T00:46:33.672Z,57.13
2019-06-15T00:47:33.688Z,56.72
2019-06-15T00:48:33.708Z,56.72
2019-06-15T00:49:33.724Z,56.75
2019-06-15T00:50:33.743Z,56.53
2019-06-15T00:51:33.762Z,56.91
2019-06-15T00:52:33.782Z,57.42
2019-06-15T00:53:33.797Z,57.68
2019-06-15T00:54:33.811Z,58.56
2019-06-15T00:55:33.832Z,59.30
2019-06-15T00:56:33.847Z,58.54
2019-06-15T00:57:33.877Z,58.63
2019-06-15T00:58:33.886Z,58.92
2019-06-15T00:59:33.901Z,59.11
2019-06-15T01:00:33.920Z,59.30
2019-06-15T01:01:35.506Z,59.30
2019-06-15T01:02:33.961Z,59.59
2019-06-15T01:03:34.003Z,63.39
2019-06-15T01:04:33.997Z,64.53
2019-06-15T01:05:34.012Z,66.63
2019-06-15T01:06:34.029Z,65.39
2019-06-15T01:07:34.045Z,63.76
2019-06-15T01:08:34.065Z,62.81
2019-06-15T01:09:34.080Z,61.38
2019-06-15T01:10:34.101Z,60.80
2019-06-15T01:11:34.116Z,60.90
2019-06-15T01:12:34.135Z,60.71
2019-06-15T01:13:34.161Z,63.48
2019-06-15T01:14:34.176Z,64.25
2019-06-15T01:15:34.186Z,63.76
2019-06-15T01:16:34.204Z,64.25
2019-06-15T01:17:34.240Z,63.57
2019-06-15T01:18:34.238Z,63.48
2019-06-15T01:19:34.262Z,65.58
2019-06-15T01:20:34.285Z,66.44
2019-06-15T01:21:34.297Z,67.49
2019-06-15T01:22:34.316Z,66.60
2019-06-15T01:23:34.330Z,66.25
2019-06-15T01:24:34.350Z,65.64
2019-06-15T01:25:34.366Z,68.23
2019-06-15T01:26:34.383Z,70.42
2019-06-15T01:27:34.399Z,70.42
2019-06-15T01:28:34.416Z,69.09
2019-06-15T01:29:34.434Z,68.99
2019-06-15T01:30:34.452Z,68.99
2019-06-15T01:31:34.467Z,69.85
2019-06-15T01:32:34.484Z,70.90
2019-06-15T01:33:34.503Z,69.76
2019-06-15T01:34:34.523Z,69.37
2019-06-15T01:35:34.537Z,68.90
2019-06-15T01:36:34.555Z,68.61
2019-06-15T01:37:34.575Z,68.80
2019-06-15T01:38:34.587Z,68.32
2019-06-15T01:39:34.612Z,68.90
2019-06-15T01:40:34.626Z,68.41
2019-06-15T01:41:34.643Z,68.51
2019-06-15T01:42:34.660Z,68.23
2019-06-15T01:43:34.689Z,68.04
2019-06-15T01:44:34.693Z,72.24
2019-06-15T01:45:34.711Z,72.72
2019-06-15T01:46:34.733Z,73.77
2019-06-15T01:47:34.750Z,75.10
2019-06-15T01:48:34.765Z,75.54
2019-06-15T01:49:34.781Z,76.98
2019-06-15T01:50:34.799Z,77.26
2019-06-15T01:51:34.818Z,76.03
2019-06-15T01:52:34.885Z,75.64
2019-06-15T01:53:34.848Z,75.93
2019-06-15T01:54:34.868Z,76.79
2019-06-15T01:55:34.885Z,77.94
2019-06-15T01:56:34.901Z,78.89
2019-06-15T01:57:34.917Z,77.74
2019-06-15T01:58:34.938Z,77.55
2019-06-15T01:59:34.955Z,77.36
2019-06-15T02:00:34.972Z,76.79
2019-06-15T02:01:34.987Z,76.60
2019-06-15T02:02:35.006Z,75.93
2019-06-15T02:03:35.020Z,75.64
2019-06-15T02:04:35.042Z,75.35
2019-06-15T02:05:35.056Z,75.54
2019-06-15T02:06:35.072Z,75.59
2019-06-15T02:07:35.092Z,75.35
2019-06-15T02:08:35.108Z,74.73
2019-06-15T02:09:35.124Z,75.68
2019-06-15T02:10:35.135Z,76.12
2019-06-15T02:11:35.162Z,75.64
2019-06-15T02:12:35.177Z,76.06
2019-06-15T02:13:35.189Z,75.78
2019-06-15T02:14:35.209Z,75.49
2019-06-15T02:15:35.222Z,75.49
2019-06-15T02:16:35.241Z,76.79
2019-06-15T02:17:35.258Z,76.60
2019-06-15T02:18:35.286Z,77.08
2019-06-15T02:19:35.294Z,77.01
2019-06-15T02:20:35.312Z,76.60
2019-06-15T02:21:35.324Z,76.82
2019-06-15T02:22:35.347Z,78.89
2019-06-15T02:23:35.361Z,78.89
2019-06-15T02:24:35.376Z,79.46
2019-06-15T02:25:36.727Z,79.36
2019-06-15T02:26:35.412Z,79.08
2019-06-15T02:27:35.439Z,79.46
2019-06-15T02:28:35.444Z,78.60
2019-06-15T02:29:35.460Z,78.51
2019-06-15T02:30:35.497Z,78.13
2019-06-15T02:31:35.501Z,78.22
2019-06-15T02:32:35.517Z,77.17
2019-06-15T02:33:35.534Z,77.65
2019-06-15T02:34:35.545Z,77.84
2019-06-15T02:35:35.566Z,78.13
2019-06-15T02:36:35.582Z,78.99
2019-06-15T02:37:35.599Z,78.70
2019-06-15T02:38:35.614Z,79.85
2019-06-15T02:39:35.632Z,79.27
2019-06-15T02:40:35.651Z,79.75
2019-06-15T02:41:35.668Z,80.04
2019-06-15T02:42:35.681Z,79.46
2019-06-15T02:43:35.701Z,79.94
2019-06-15T02:44:35.715Z,80.70
2019-06-15T02:45:35.732Z,80.04
2019-06-15T02:46:35.757Z,79.94
2019-06-15T02:47:35.774Z,80.51
2019-06-15T02:48:35.788Z,79.65
2019-06-15T02:49:35.800Z,80.04
2019-06-15T02:50:35.819Z,79.65
2019-06-15T02:51:35.834Z,80.13
2019-06-15T02:52:35.862Z,80.80
2019-06-15T02:53:35.890Z,80.90
2019-06-15T02:54:35.895Z,81.85
2019-06-15T02:55:47.310Z,81.76
2019-06-15T02:56:35.920Z,81.76
2019-06-15T02:57:35.936Z,81.18
2019-06-15T02:58:35.964Z,81.71
2019-06-15T02:59:35.968Z,81.14
2019-06-15T03:00:35.994Z,81.14
2019-06-15T03:01:36.011Z,81.14
2019-06-15T03:02:36.056Z,82.04
2019-06-15T03:03:36.040Z,82.81
2019-06-15T03:04:36.058Z,84.00
2019-06-15T03:05:36.073Z,83.95
2019-06-15T03:06:36.097Z,84.58
2019-06-15T03:07:36.108Z,85.15
2019-06-15T03:08:36.129Z,85.34
2019-06-15T03:09:36.143Z,85.82
2019-06-15T03:10:36.159Z,86.20
2019-06-15T03:11:36.172Z,86.20
2019-06-15T03:12:36.189Z,86.30
2019-06-15T03:13:36.209Z,86.58
2019-06-15T03:14:36.225Z,85.72
2019-06-15T03:15:36.242Z,86.01
2019-06-15T03:16:36.258Z,85.58
2019-06-15T03:17:36.275Z,85.68
2019-06-15T03:18:36.292Z,85.05
2019-06-15T03:19:36.305Z,84.10
2019-06-15T03:20:36.321Z,83.34
2019-06-15T03:21:36.344Z,83.14
2019-06-15T03:22:36.365Z,82.86
2019-06-15T03:23:36.384Z,82.95
2019-06-15T03:24:36.395Z,82.57
2019-06-15T03:25:36.409Z,82.09
2019-06-15T03:26:36.419Z,83.81
2019-06-15T03:27:36.444Z,86.10
2019-06-15T03:28:36.456Z,86.63
2019-06-15T03:29:36.477Z,86.92
2019-06-15T03:30:36.488Z,87.02
2019-06-15T03:31:36.509Z,87.40
2019-06-15T03:32:36.542Z,87.78
2019-06-15T03:33:36.543Z,88.16
2019-06-15T03:34:36.556Z,88.54
2019-06-15T03:35:36.573Z,88.26
2019-06-15T03:36:36.592Z,88.45
2019-06-15T03:37:36.604Z,88.92
2019-06-15T03:38:36.620Z,88.35
2019-06-15T03:39:36.635Z,89.12
2019-06-15T03:40:36.654Z,89.69
2019-06-15T03:41:36.669Z,89.64
2019-06-15T03:42:36.688Z,89.74
2019-06-15T03:43:36.699Z,89.83
2019-06-15T03:44:36.717Z,89.64
2019-06-15T03:45:36.740Z,90.22
2019-06-15T03:46:36.756Z,90.03
2019-06-15T03:47:36.766Z,89.64
2019-06-15T03:48:36.781Z,89.93
2019-06-15T03:49:36.800Z,89.64
2019-06-15T03:50:36.822Z,89.02
2019-06-15T03:51:36.831Z,88.69
2019-06-15T03:52:36.848Z,87.64
2019-06-15T03:53:36.865Z,87.87
2019-06-15T03:54:36.879Z,87.68
2019-06-15T03:55:40.313Z,87.30
2019-06-15T03:56:36.913Z,87.02
2019-06-15T03:57:36.929Z,86.82
2019-06-15T03:58:36.944Z,87.59
2019-06-15T03:59:36.966Z,87.87
2019-06-15T04:00:36.981Z,88.35
2019-06-15T04:01:36.989Z,88.35
2019-06-15T04:02:37.022Z,89.07
2019-06-15T04:03:37.082Z,89.45
2019-06-15T04:04:37.037Z,89.54
2019-06-15T04:05:37.063Z,90.22
2019-06-15T04:06:37.075Z,90.31
2019-06-15T04:07:37.087Z,90.98
2019-06-15T04:08:37.105Z,90.69
2019-06-15T04:09:37.131Z,91.36
2019-06-15T04:10:37.136Z,91.17
2019-06-15T04:11:37.150Z,91.27
2019-06-15T04:12:37.164Z,91.17
2019-06-15T04:13:37.181Z,92.03
2019-06-15T04:14:37.201Z,91.64
2019-06-15T04:15:37.213Z,91.83
2019-06-15T04:16:37.234Z,91.93
2019-06-15T04:17:37.243Z,92.12
2019-06-15T04:18:37.262Z,91.83
2019-06-15T04:19:37.277Z,91.83
2019-06-15T04:20:37.294Z,91.83
2019-06-15T04:21:37.306Z,91.83
2019-06-15T04:22:37.337Z,91.17
2019-06-15T04:23:37.338Z,90.79
2019-06-15T04:24:37.356Z,90.31
2019-06-15T04:25:37.369Z,90.59
2019-06-15T04:26:37.386Z,90.50
2019-06-15T04:27:37.401Z,90.88
2019-06-15T04:28:37.419Z,90.73
2019-06-15T04:29:37.436Z,90.73
2019-06-15T04:30:37.448Z,90.73
2019-06-15T04:31:39.982Z,89.97
2019-06-15T04:32:37.484Z,90.55
2019-06-15T04:33:37.504Z,90.17
2019-06-15T04:34:37.514Z,90.36
2019-06-15T04:35:37.528Z,90.93
2019-06-15T04:36:37.543Z,91.02
2019-06-15T04:37:37.563Z,90.55
2019-06-15T04:38:37.576Z,90.55
2019-06-15T04:39:37.594Z,90.45
2019-06-15T04:40:37.616Z,90.64
2019-06-15T04:41:37.624Z,89.97
2019-06-15T04:42:37.637Z,90.73
2019-06-15T04:43:37.657Z,89.97
2019-06-15T04:44:37.670Z,90.55
2019-06-15T04:45:37.690Z,90.73
2019-06-15T04:46:37.706Z,90.93
2019-06-15T04:47:37.724Z,90.73
2019-06-15T04:48:37.736Z,90.73
2019-06-15T04:49:37.754Z,90.73
2019-06-15T04:50:37.769Z,91.41
2019-06-15T04:51:37.781Z,90.73
2019-06-15T04:52:37.803Z,91.21
2019-06-15T04:53:37.818Z,91.50
2019-06-15T04:54:37.839Z,91.31
2019-06-15T04:55:37.851Z,90.93
2019-06-15T04:56:50.283Z,91.02
2019-06-15T04:57:37.952Z,90.93
2019-06-15T04:58:37.894Z,91.88
2019-06-15T04:59:37.909Z,91.69
2019-06-15T05:00:38.168Z,91.50
2019-06-15T05:01:37.946Z,90.83
2019-06-15T05:02:37.961Z,91.12
2019-06-15T05:03:37.973Z,91.02
2019-06-15T05:04:37.993Z,91.21
2019-06-15T05:05:38.011Z,91.12
2019-06-15T05:06:38.024Z,90.64
2019-06-15T05:07:38.039Z,90.83
2019-06-15T05:08:38.054Z,90.64
2019-06-15T05:09:38.075Z,91.41
2019-06-15T05:10:38.086Z,90.73
2019-06-15T05:11:38.105Z,91.02
2019-06-15T05:12:38.123Z,91.50
2019-06-15T05:13:38.138Z,92.26
2019-06-15T05:14:38.154Z,92.07
2019-06-15T05:15:38.171Z,92.55
2019-06-15T05:16:38.182Z,92.74
2019-06-15T05:17:38.206Z,92.26
2019-06-15T05:18:38.225Z,92.36
2019-06-15T05:19:38.233Z,92.74
2019-06-15T05:20:38.249Z,91.88
2019-06-15T05:21:38.266Z,92.36
2019-06-15T05:22:38.282Z,92.07
2019-06-15T05:23:38.303Z,91.78
2019-06-15T05:24:38.318Z,91.41
2019-06-15T05:25:38.339Z,91.74
2019-06-15T05:26:38.346Z,91.36
2019-06-15T05:27:38.364Z,91.26
2019-06-15T05:28:38.381Z,91.55
2019-06-15T05:29:38.397Z,91.93
2019-06-15T05:30:38.413Z,91.55
2019-06-15T05:31:38.430Z,91.07
2019-06-15T05:32:38.445Z,91.07
2019-06-15T05:33:38.459Z,91.16
2019-06-15T05:34:38.477Z,90.40
2019-06-15T05:35:38.503Z,90.59
2019-06-15T05:36:38.512Z,89.83
2019-06-15T05:37:38.527Z,90.11
2019-06-15T05:38:38.538Z,90.02
2019-06-15T05:39:38.559Z,90.69
2019-06-15T05:40:38.572Z,90.02
2019-06-15T05:41:38.592Z,89.73
2019-06-15T05:42:38.604Z,90.69
2019-06-15T05:43:38.622Z,91.26
2019-06-15T05:44:38.641Z,91.16
2019-06-15T05:45:38.655Z,90.78
2019-06-15T05:46:38.677Z,90.97
2019-06-15T05:47:38.690Z,90.97
2019-06-15T05:48:38.708Z,91.07
2019-06-15T05:49:38.725Z,90.97
2019-06-15T05:50:38.737Z,90.31
2019-06-15T05:51:38.756Z,91.07
2019-06-15T05:52:38.772Z,91.07
2019-06-15T05:53:38.787Z,92.21
2019-06-15T05:54:38.802Z,92.97
2019-06-15T05:55:38.832Z,93.36
2019-06-15T05:56:38.836Z,93.55
2019-06-15T05:57:38.853Z,93.12
2019-06-15T05:58:38.867Z,93.46
2019-06-15T05:59:38.892Z,93.17
2019-06-15T06:00:39.026Z,93.36
2019-06-15T06:01:38.925Z,92.60
2019-06-15T06:02:38.937Z,92.60
2019-06-15T06:03:38.957Z,92.12
2019-06-15T06:04:38.971Z,91.83
2019-06-15T06:05:38.986Z,91.07
2019-06-15T06:06:39.004Z,91.26
2019-06-15T06:07:39.018Z,92.12
2019-06-15T06:08:39.038Z,91.45
2019-06-15T06:09:39.083Z,91.74
2019-06-15T06:10:39.064Z,92.60
2019-06-15T06:11:39.087Z,90.69
2019-06-15T06:12:39.098Z,90.31
2019-06-15T06:13:39.119Z,91.36
2019-06-15T06:14:39.134Z,93.26
2019-06-15T06:15:39.148Z,94.31
2019-06-15T06:16:39.322Z,93.93
2019-06-15T06:17:42.179Z,93.93
2019-06-15T06:18:39.200Z,93.65
2019-06-15T06:19:39.214Z,93.26
2019-06-15T06:20:39.230Z,93.55
2019-06-15T06:21:39.248Z,93.93
2019-06-15T06:22:39.263Z,93.46
2019-06-15T06:23:39.283Z,92.50
2019-06-15T06:24:39.298Z,92.50
2019-06-15T06:25:39.322Z,93.21
2019-06-15T06:26:39.333Z,92.36
2019-06-15T06:27:39.348Z,92.83
2019-06-15T06:28:39.367Z,93.21
2019-06-15T06:29:39.378Z,92.21
2019-06-15T06:30:39.397Z,92.31
2019-06-15T06:31:39.419Z,91.74
2019-06-15T06:32:39.431Z,93.17
2019-06-15T06:33:39.538Z,94.03
2019-06-15T06:34:39.462Z,94.65
2019-06-15T06:35:39.492Z,92.41
2019-06-15T06:36:39.495Z,90.64
2019-06-15T06:37:39.514Z,90.54
2019-06-15T06:38:39.528Z,91.97
2019-06-15T06:39:39.544Z,91.69
2019-06-15T06:40:39.564Z,91.69
2019-06-15T06:41:39.576Z,90.35
2019-06-15T06:42:39.596Z,90.83
2019-06-15T06:43:39.608Z,91.21
2019-06-15T06:44:39.626Z,91.35
2019-06-15T06:45:39.648Z,91.30
2019-06-15T06:46:39.659Z,90.73
2019-06-15T06:47:39.680Z,91.78
2019-06-15T06:48:39.691Z,93.98
2019-06-15T06:49:39.708Z,94.84
2019-06-15T06:50:41.346Z,94.17
2019-06-15T06:51:39.740Z,95.07
2019-06-15T06:52:39.758Z,94.22
2019-06-15T06:53:39.781Z,92.88
2019-06-15T06:54:39.794Z,94.98
2019-06-15T06:55:39.817Z,96.13
2019-06-15T06:56:39.829Z,94.12
2019-06-15T06:57:51.715Z,94.79
2019-06-15T06:58:39.861Z,94.70
2019-06-15T06:59:39.878Z,93.93
2019-06-15T07:00:39.892Z,92.69
2019-06-15T07:01:39.910Z,93.12
2019-06-15T07:02:39.926Z,93.93
2019-06-15T07:03:39.948Z,96.42
2019-06-15T07:04:39.960Z,93.93
2019-06-15T07:05:39.976Z,92.97
2019-06-15T07:06:39.994Z,92.88
2019-06-15T07:07:40.016Z,93.07
2019-06-15T07:08:40.038Z,92.02
2019-06-15T07:09:40.040Z,91.64
2019-06-15T07:10:40.060Z,91.06
2019-06-15T07:11:40.081Z,89.63
2019-06-15T07:12:40.091Z,89.92
2019-06-15T07:13:40.109Z,90.49
2019-06-15T07:14:40.123Z,90.30
2019-06-15T07:15:40.144Z,90.92
2019-06-15T07:16:40.159Z,93.31
2019-06-15T07:17:40.174Z,92.36
2019-06-15T07:18:40.195Z,93.31
2019-06-15T07:19:40.212Z,94.17
2019-06-15T07:20:40.230Z,92.55
2019-06-15T07:21:40.245Z,93.45
2019-06-15T07:22:40.258Z,93.36
2019-06-15T07:23:40.278Z,92.74
2019-06-15T07:24:40.292Z,94.17
2019-06-15T07:25:40.308Z,92.55
2019-06-15T07:26:40.325Z,92.30
2019-06-15T07:27:40.342Z,92.59
2019-06-15T07:28:40.365Z,93.02
2019-06-15T07:29:40.378Z,92.83
2019-06-15T07:30:40.395Z,93.21
2019-06-15T07:31:40.411Z,93.79
2019-06-15T07:32:40.425Z,93.88
2019-06-15T07:33:40.440Z,94.22
2019-06-15T07:34:40.458Z,94.02
2019-06-15T07:35:40.475Z,93.36
2019-06-15T07:36:40.493Z,91.93
2019-06-15T07:37:40.509Z,93.31
2019-06-15T07:38:40.537Z,92.97
2019-06-15T07:39:40.813Z,96.22
2019-06-15T07:40:40.558Z,94.12
2019-06-15T07:41:40.578Z,94.93
2019-06-15T07:42:40.593Z,92.93
2019-06-15T07:43:40.609Z,93.69
2019-06-15T07:44:40.659Z,92.35
2019-06-15T07:45:40.645Z,91.49
2019-06-15T07:46:40.657Z,92.88
2019-06-15T07:47:40.681Z,90.49
2019-06-15T07:48:40.714Z,91.50
2019-06-15T07:49:40.712Z,93.41
2019-06-15T07:50:40.727Z,93.74
2019-06-15T07:51:40.744Z,95.27
2019-06-15T07:52:40.768Z,93.65
2019-06-15T07:53:40.775Z,92.02
2019-06-15T07:54:40.793Z,92.21
2019-06-15T07:55:40.807Z,93.60
2019-06-15T07:56:40.830Z,92.93
2019-06-15T07:57:40.843Z,94.36
2019-06-15T07:58:40.861Z,91.39
2019-06-15T07:59:40.880Z,91.11
2019-06-15T08:00:40.904Z,90.82
2019-06-15T08:01:40.909Z,91.11
2019-06-15T08:02:40.927Z,90.34
2019-06-15T08:03:43.356Z,91.97
2019-06-15T08:04:40.962Z,89.29
2019-06-15T08:05:40.978Z,91.02
2019-06-15T08:06:40.992Z,92.64
2019-06-15T08:07:41.017Z,90.82
2019-06-15T08:08:41.026Z,90.82
2019-06-15T08:09:41.042Z,91.06
2019-06-15T08:10:41.062Z,87.04
2019-06-15T08:11:41.092Z,87.76
2019-06-15T08:12:41.095Z,89.29
2019-06-15T08:13:41.111Z,87.95
2019-06-15T08:14:41.128Z,87.86
2019-06-15T08:15:41.146Z,91.06
2019-06-15T08:16:41.161Z,88.38
2019-06-15T08:17:41.176Z,89.05
2019-06-15T08:18:41.196Z,89.15
2019-06-15T08:19:41.212Z,87.14
2019-06-15T08:20:41.230Z,86.08
2019-06-15T08:21:41.249Z,85.61
2019-06-15T08:22:41.267Z,86.66
2019-06-15T08:23:41.281Z,88.09
2019-06-15T08:24:41.297Z,87.52
2019-06-15T08:25:41.315Z,89.91
2019-06-15T08:26:41.333Z,87.90
2019-06-15T08:27:41.377Z,88.00
2019-06-15T08:28:41.365Z,87.81
2019-06-15T08:29:41.380Z,87.14
2019-06-15T08:30:41.395Z,90.30
2019-06-15T08:31:41.416Z,86.57
2019-06-15T08:32:41.430Z,88.57
2019-06-15T08:33:41.449Z,87.81
2019-06-15T08:34:41.466Z,88.57
2019-06-15T08:35:41.495Z,87.56
2019-06-15T08:36:41.503Z,88.23
2019-06-15T08:37:41.519Z,90.15
2019-06-15T08:38:41.535Z,92.68
2019-06-15T08:39:41.549Z,92.68
2019-06-15T08:40:41.573Z,89.04
2019-06-15T08:41:41.588Z,88.18
2019-06-15T08:42:41.612Z,90.39
2019-06-15T08:43:41.625Z,88.85
2019-06-15T08:44:41.637Z,89.95
2019-06-15T08:45:41.657Z,91.49
2019-06-15T08:46:41.669Z,91.97
2019-06-15T08:47:41.687Z,92.73
2019-06-15T08:48:41.707Z,88.28
2019-06-15T08:49:41.724Z,87.32
2019-06-15T08:50:41.742Z,87.90
2019-06-15T08:51:41.757Z,85.21
2019-06-15T08:52:41.775Z,85.75
2019-06-15T08:53:41.792Z,86.04
2019-06-15T08:54:41.810Z,86.17
2019-06-15T08:55:41.827Z,84.41
2019-06-15T08:56:41.843Z,85.46
2019-06-15T08:57:41.861Z,89.33
2019-06-15T08:58:54.832Z,87.70
2019-06-15T08:59:41.893Z,85.79
2019-06-15T09:00:41.916Z,86.02
2019-06-15T09:01:41.929Z,85.06
2019-06-15T09:02:41.950Z,84.92
2019-06-15T09:03:41.983Z,86.36
2019-06-15T09:04:41.983Z,86.70
2019-06-15T09:05:42.003Z,88.43
2019-06-15T09:06:42.018Z,91.53
2019-06-15T09:07:42.036Z,89.81
2019-06-15T09:08:42.052Z,87.08
2019-06-15T09:09:42.083Z,88.13
2019-06-15T09:10:42.095Z,87.27
2019-06-15T09:11:42.107Z,87.13
2019-06-15T09:12:42.130Z,87.61
2019-06-15T09:13:42.183Z,89.90
2019-06-15T09:14:42.163Z,89.95
2019-06-15T09:15:42.183Z,91.86
2019-06-15T09:16:42.203Z,86.12
2019-06-15T09:17:42.213Z,89.47
2019-06-15T09:18:42.233Z,89.37
2019-06-15T09:19:42.251Z,89.18
2019-06-15T09:20:42.270Z,92.25
2019-06-15T09:21:42.285Z,90.33
2019-06-15T09:22:42.310Z,85.54
2019-06-15T09:23:42.325Z,85.06
2019-06-15T09:24:42.339Z,83.59
2019-06-15T09:25:42.358Z,86.65
2019-06-15T09:26:42.382Z,91.39
2019-06-15T09:27:42.400Z,90.33
2019-06-15T09:28:42.442Z,86.25
2019-06-15T09:29:42.435Z,89.71
2019-06-15T09:30:42.452Z,89.80
2019-06-15T09:31:42.470Z,87.26
2019-06-15T09:32:42.592Z,83.86
2019-06-15T09:33:42.505Z,83.76
2019-06-15T09:34:42.519Z,84.82
2019-06-15T09:35:42.546Z,86.58
2019-06-15T09:36:42.561Z,86.49
2019-06-15T09:37:42.579Z,84.77
2019-06-15T09:38:42.597Z,86.58
2019-06-15T09:39:42.619Z,86.21
2019-06-15T09:40:42.645Z,87.26
2019-06-15T09:41:42.651Z,86.30
2019-06-15T09:42:42.671Z,84.19
2019-06-15T09:43:42.698Z,86.11
2019-06-15T09:44:42.708Z,87.35
2019-06-15T09:45:42.728Z,84.95
2019-06-15T09:46:42.749Z,82.41
2019-06-15T09:47:42.785Z,85.19
2019-06-15T09:48:42.782Z,86.01
2019-06-15T09:49:42.806Z,84.86
2019-06-15T09:50:42.822Z,82.85
2019-06-15T09:51:42.841Z,86.30
2019-06-15T09:52:42.860Z,86.68
2019-06-15T09:53:42.878Z,84.00
2019-06-15T09:54:42.895Z,92.05
2019-06-15T09:55:42.917Z,88.84
2019-06-15T09:56:42.942Z,83.85
2019-06-15T09:57:42.960Z,82.60
2019-06-15T09:58:42.973Z,82.85
2019-06-15T09:59:42.996Z,82.37
2019-06-15T10:00:43.011Z,87.26
2019-06-15T10:01:43.036Z,87.68
2019-06-15T10:02:43.048Z,87.59
2019-06-15T10:03:43.080Z,86.05
2019-06-15T10:04:43.089Z,81.84
2019-06-15T10:05:43.111Z,82.51
2019-06-15T10:06:43.128Z,83.75
2019-06-15T10:07:43.155Z,82.21
2019-06-15T10:08:43.164Z,82.51
2019-06-15T10:09:43.183Z,81.20
2019-06-15T10:10:43.207Z,80.78
2019-06-15T10:11:43.225Z,79.14
2019-06-15T10:12:43.247Z,85.86
2019-06-15T10:13:43.327Z,85.62
2019-06-15T10:14:43.287Z,82.21
2019-06-15T10:15:43.302Z,82.08
2019-06-15T10:16:43.322Z,82.60
2019-06-15T10:17:43.342Z,87.30
2019-06-15T10:18:43.362Z,80.68
2019-06-15T10:19:43.379Z,83.27
2019-06-15T10:20:43.396Z,81.79
2019-06-15T10:21:43.417Z,83.18
2019-06-15T10:22:43.435Z,83.85
2019-06-15T10:23:43.461Z,83.08
2019-06-15T10:24:43.482Z,81.84
2019-06-15T10:25:43.494Z,81.93
2019-06-15T10:26:43.514Z,86.34
2019-06-15T10:27:43.532Z,80.68
2019-06-15T10:28:43.552Z,82.60
2019-06-15T10:29:43.574Z,84.52
2019-06-15T10:30:43.590Z,86.38
2019-06-15T10:31:43.613Z,79.28
2019-06-15T10:32:43.628Z,80.73
2019-06-15T10:33:43.652Z,78.96
2019-06-15T10:34:43.667Z,81.74
2019-06-15T10:35:43.686Z,85.00
2019-06-15T10:36:43.710Z,79.44
2019-06-15T10:37:43.730Z,84.42
2019-06-15T10:38:43.744Z,82.03
2019-06-15T10:39:43.768Z,82.65
2019-06-15T10:40:43.794Z,84.23
2019-06-15T10:41:43.807Z,79.59
2019-06-15T10:42:43.820Z,81.79
2019-06-15T10:43:43.843Z,82.37
2019-06-15T10:44:43.866Z,80.97
2019-06-15T10:45:43.889Z,82.94
2019-06-15T10:46:43.913Z,82.51
2019-06-15T10:47:43.919Z,82.84
2019-06-15T10:48:43.939Z,79.28
2019-06-15T10:49:44.042Z,86.81
2019-06-15T10:50:43.976Z,80.61
2019-06-15T10:51:43.993Z,79.65
2019-06-15T10:52:44.018Z,79.94
2019-06-15T10:53:44.034Z,77.15
2019-06-15T10:54:44.057Z,76.15
2019-06-15T10:55:44.075Z,77.94
2019-06-15T10:56:44.104Z,78.70
2019-06-15T10:57:44.126Z,75.45
2019-06-15T10:58:44.133Z,79.19
2019-06-15T10:59:56.441Z,80.15
2019-06-15T11:00:44.178Z,77.90
2019-06-15T11:01:44.190Z,81.02
2019-06-15T11:02:44.213Z,79.83
2019-06-15T11:03:44.231Z,82.62
2019-06-15T11:04:44.252Z,82.96
2019-06-15T11:05:44.266Z,84.39
2019-06-15T11:06:44.296Z,86.21
2019-06-15T11:07:44.308Z,84.39
2019-06-15T11:08:44.327Z,86.83
2019-06-15T11:09:44.348Z,82.42
2019-06-15T11:10:44.363Z,85.39
2019-06-15T11:11:44.390Z,83.95
2019-06-15T11:12:46.681Z,83.00
2019-06-15T11:13:44.428Z,83.14
2019-06-15T11:14:44.451Z,81.89
2019-06-15T11:15:44.464Z,82.70
2019-06-15T11:16:44.481Z,84.66
2019-06-15T11:17:44.498Z,84.89
2019-06-15T11:18:44.517Z,78.32
2019-06-15T11:19:44.547Z,79.09
2019-06-15T11:20:44.555Z,76.69
2019-06-15T11:21:44.580Z,76.12
2019-06-15T11:22:44.602Z,75.54
2019-06-15T11:23:44.614Z,74.77
2019-06-15T11:24:44.638Z,81.24
2019-06-15T11:25:44.658Z,83.97
2019-06-15T11:26:44.676Z,77.63
2019-06-15T11:27:44.867Z,80.07
2019-06-15T11:28:44.715Z,78.25
2019-06-15T11:29:44.743Z,77.81
2019-06-15T11:30:44.754Z,72.55
2019-06-15T11:31:44.772Z,71.78
2019-06-15T11:32:44.791Z,74.19
2019-06-15T11:33:44.819Z,74.67
2019-06-15T11:34:44.837Z,76.11
2019-06-15T11:35:44.855Z,77.11
2019-06-15T11:36:44.874Z,75.24
2019-06-15T11:37:44.894Z,75.79
2019-06-15T11:38:44.915Z,74.11
2019-06-15T11:39:44.940Z,78.21
2019-06-15T11:40:44.961Z,78.34
2019-06-15T11:41:44.981Z,82.29
2019-06-15T11:42:44.997Z,76.52
2019-06-15T11:43:45.024Z,74.25
2019-06-15T11:44:45.036Z,76.14
2019-06-15T11:45:45.057Z,78.25
2019-06-15T11:46:45.080Z,78.06
2019-06-15T11:47:45.098Z,77.50
2019-06-15T11:48:45.121Z,78.27
2019-06-15T11:49:45.140Z,77.78
2019-06-15T11:50:45.160Z,77.88
2019-06-15T11:51:45.187Z,76.92
2019-06-15T11:52:45.205Z,77.78
2019-06-15T11:53:45.223Z,76.67
2019-06-15T11:54:45.246Z,75.45
2019-06-15T11:55:45.266Z,79.76
2019-06-15T11:56:45.288Z,78.65
2019-06-15T11:57:45.306Z,78.30
2019-06-15T11:58:45.334Z,78.34
2019-06-15T11:59:45.399Z,79.82
2019-06-15T12:00:45.368Z,73.86
2019-06-15T12:01:45.389Z,75.11
2019-06-15T12:02:45.412Z,79.48
2019-06-15T12:03:45.431Z,73.13
2019-06-15T12:04:57.664Z,74.44
2019-06-15T12:05:45.498Z,74.67
2019-06-15T12:06:45.495Z,72.13
2019-06-15T12:07:45.518Z,75.46
2019-06-15T12:08:45.538Z,75.84
2019-06-15T12:09:45.560Z,73.79
2019-06-15T12:10:45.611Z,72.96
2019-06-15T12:11:45.601Z,72.79
2019-06-15T12:12:45.619Z,79.17
2019-06-15T12:13:45.641Z,79.42
2019-06-15T12:14:45.662Z,76.59
2019-06-15T12:15:45.681Z,75.79
2019-06-15T12:16:45.710Z,79.24
2019-06-15T12:17:45.726Z,80.01
2019-06-15T12:18:45.751Z,81.54
2019-06-15T12:19:45.768Z,83.37
2019-06-15T12:20:45.787Z,80.82
2019-06-15T12:21:45.807Z,78.19
2019-06-15T12:22:45.828Z,78.00
2019-06-15T12:23:45.854Z,81.16
2019-06-15T12:24:45.872Z,80.30
2019-06-15T12:25:45.893Z,76.07
2019-06-15T12:26:45.910Z,81.10
2019-06-15T12:27:45.930Z,83.60
2019-06-15T12:28:45.961Z,77.75
2019-06-15T12:29:45.979Z,81.30
2019-06-15T12:30:47.781Z,80.66
2019-06-15T12:31:46.031Z,77.69
2019-06-15T12:32:46.036Z,79.09
2019-06-15T12:33:46.059Z,78.65
2019-06-15T12:34:46.091Z,77.94
2019-06-15T12:35:46.095Z,77.21
2019-06-15T12:36:46.116Z,80.42
2019-06-15T12:37:46.138Z,80.17
2019-06-15T12:38:46.164Z,74.11
2019-06-15T12:39:46.182Z,78.25
2019-06-15T12:40:46.207Z,73.83
2019-06-15T12:41:46.219Z,75.31
2019-06-15T12:42:46.239Z,72.42
2019-06-15T12:43:46.266Z,71.75
2019-06-15T12:44:46.287Z,69.24
2019-06-15T12:45:46.309Z,70.43
2019-06-15T12:46:46.337Z,68.63
2019-06-15T12:47:46.345Z,72.73
2019-06-15T12:48:46.368Z,74.37
2019-06-15T12:49:46.387Z,71.91
2019-06-15T12:50:46.408Z,74.44
2019-06-15T12:51:46.434Z,70.68
2019-06-15T12:52:46.456Z,70.50